Time;durP1;ratioP1;P1;durP2;ratioP2;P2;SDS_P1;SDS_P2;PMS_P1;PMS_P2;Temp;Humidity;BMP_temperature;BMP_pressure;BME280_temperature;BME280_humidity;BME280_pressure;Samples;Min_cycle;Max_cycle;Signal;HPM_P1;HPM_P2
2021/08/31 17:13:50;;;;;;;;;12.67;6.00;;;;;22.99;64.51;99393.50;6587508;19;1813756;-38
2021/08/31 17:16:18;;;;;;;;;8.33;4.00;;;;;22.94;63.98;99400.53;6790403;19;2759560;-37
2021/08/31 17:20:29;;;;;;;;;4.00;4.00;;;;;18.33;78.75;99397.53;6757272;19;3465837;-55
2021/08/31 17:22:58;;;;;;;;;4.00;4.00;;;;;18.07;80.14;99389.22;6650629;19;3044845;-53
2021/08/31 17:25:27;;;;;;;;;4.67;4.00;;;;;18.31;79.55;99402.25;6819990;19;2741857;-51
2021/08/31 17:27:57;;;;;;;;;4.00;4.00;;;;;18.24;79.58;99412.00;6820117;19;2749127;-51
2021/08/31 17:30:26;;;;;;;;;7.00;4.00;;;;;18.14;80.02;99414.75;6817876;19;2754367;-53
2021/08/31 17:32:54;;;;;;;;;5.00;5.00;;;;;18.14;81.75;99412.03;6820695;19;2741856;-55
2021/08/31 17:35:22;;;;;;;;;7.00;7.00;;;;;17.74;84.46;99416.72;6796306;19;2739780;-55
2021/08/31 17:37:49;;;;;;;;;5.00;5.00;;;;;17.87;84.40;99418.28;6791964;19;2742886;-54
2021/08/31 17:40:17;;;;;;;;;5.00;5.00;;;;;17.90;84.72;99413.41;6791514;19;2740798;-54
2021/08/31 17:42:45;;;;;;;;;7.00;5.00;;;;;17.76;85.53;99409.28;6791948;19;2727277;-55
2021/08/31 17:45:12;;;;;;;;;5.00;5.00;;;;;17.60;87.13;99411.75;6787603;19;2747187;-55
2021/08/31 17:47:40;;;;;;;;;8.00;7.00;;;;;17.37;87.94;99408.50;6787681;19;2746011;-54
2021/08/31 17:50:08;;;;;;;;;7.00;7.00;;;;;17.33;87.96;99412.53;6793105;19;2735590;-54
2021/08/31 17:52:42;;;;;;;;;12.00;10.80;;;;;17.46;86.97;99415.78;6810809;19;2787664;-54
2021/08/31 17:55:12;;;;;;;;;7.50;7.50;;;;;17.59;85.69;99412.78;6787404;19;2733503;-55
2021/08/31 17:57:43;;;;;;;;;7.50;7.50;;;;;17.43;87.02;99416.09;6781275;19;2739757;-54
2021/08/31 18:00:15;;;;;;;;;8.57;7.14;;;;;17.32;86.35;99419.81;6834061;19;3443919;-50
2021/08/31 18:02:42;;;;;;;;;7.50;7.50;;;;;17.30;87.03;99424.53;6817761;19;2737682;-55
2021/08/31 18:05:11;;;;;;;;;7.00;7.00;;;;;17.00;89.01;99427.38;6786182;19;2738716;-51
2021/08/31 18:07:38;;;;;;;;;6.50;6.50;;;;;17.08;88.58;99430.22;6784538;19;2740791;-52
2021/08/31 18:10:08;;;;;;;;;6.50;6.50;;;;;17.03;88.69;99429.78;6784128;19;2738727;-54
2021/08/31 18:12:36;;;;;;;;;8.00;7.00;;;;;17.09;87.97;99432.81;6785530;19;2741880;-55
2021/08/31 18:15:04;;;;;;;;;7.00;7.00;;;;;16.95;88.84;99426.94;6785526;19;2746031;-54
2021/08/31 18:17:35;;;;;;;;;7.40;6.00;;;;;16.97;88.83;99438.50;6830186;19;2467896;-53
2021/08/31 18:20:07;;;;;;;;;5.50;5.50;;;;;16.98;88.54;99429.34;6816503;19;2737658;-55
2021/08/31 18:22:35;;;;;;;;;8.00;8.00;;;;;17.03;88.51;99427.06;6784502;19;2731448;-55
2021/08/31 18:25:04;;;;;;;;;7.00;7.00;;;;;17.04;88.22;99424.22;6785103;19;2737665;-53
2021/08/31 18:27:32;;;;;;;;;8.00;8.00;;;;;16.98;88.26;99430.25;6784144;19;2734548;-52
2021/08/31 18:30:00;;;;;;;;;7.00;7.00;;;;;17.10;87.47;99428.22;6782294;19;2728315;-56
2021/08/31 18:32:31;;;;;;;;;8.20;8.20;;;;;16.94;87.51;99433.38;6786346;19;2729341;-55
2021/08/31 18:34:58;;;;;;;;;10.50;9.00;;;;;17.02;87.39;99428.09;6788844;19;2776210;-55
2021/08/31 18:37:26;;;;;;;;;11.00;8.50;;;;;16.98;87.48;99437.50;6761522;19;2749160;-54
2021/08/31 18:39:53;;;;;;;;;9.50;6.00;;;;;16.94;87.04;99439.66;6757902;19;2756443;-51
2021/08/31 18:42:21;;;;;;;;;11.00;7.00;;;;;17.17;86.11;99437.53;6759447;19;2749123;-54
2021/08/31 18:44:49;;;;;;;;;7.00;7.00;;;;;17.15;86.40;99439.50;6754041;19;2746014;-54
2021/08/31 18:47:16;;;;;;;;;10.00;8.00;;;;;17.03;86.02;99444.19;6751817;19;2754344;-56
2021/08/31 18:49:44;;;;;;;;;11.00;10.00;;;;;17.09;86.18;99438.22;6752646;19;2793942;-54
2021/08/31 18:52:11;;;;;;;;;9.00;7.50;;;;;16.88;87.53;99438.34;6757224;19;2730390;-55
2021/08/31 18:54:39;;;;;;;;;11.00;7.50;;;;;17.05;86.35;99433.22;6755446;19;2765810;-51
2021/08/31 18:57:07;;;;;;;;;11.00;9.67;;;;;17.02;86.44;99433.50;6754066;19;2781465;-54
2021/08/31 18:59:35;;;;;;;;;11.00;10.00;;;;;17.22;85.04;99439.78;6786305;19;2772075;-54
2021/08/31 19:02:03;;;;;;;;;11.00;10.00;;;;;17.21;85.13;99430.78;6753682;19;2787672;-53
2021/08/31 19:04:36;;;;;;;;;10.00;10.00;;;;;17.20;84.94;99428.25;6784818;19;2778340;-53
2021/08/31 19:07:04;;;;;;;;;9.00;8.00;;;;;17.09;85.44;99430.09;6790323;19;2731420;-53
2021/08/31 19:09:31;;;;;;;;;8.50;8.50;;;;;17.15;85.07;99425.09;6755934;19;2744980;-52
2021/08/31 19:12:00;;;;;;;;;11.00;8.60;;;;;17.24;84.84;99430.50;6783873;19;2767873;-55
2021/08/31 19:14:28;;;;;;;;;11.50;10.00;;;;;17.08;85.70;99424.78;6766291;19;2774122;-53
2021/08/31 19:16:56;;;;;;;;;11.33;11.33;;;;;16.95;85.61;99414.22;6750707;19;3510583;-54
2021/08/31 19:19:26;;;;;;;;;13.40;9.20;;;;;16.92;86.37;99413.66;6814080;19;2760613;-56
2021/08/31 19:21:56;;;;;;;;;10.60;10.00;;;;;17.00;85.93;99419.22;6782608;19;2786662;-55
2021/08/31 19:24:25;;;;;;;;;10.80;10.80;;;;;16.99;85.79;99412.09;6783671;19;2774146;-55
2021/08/31 19:26:53;;;;;;;;;8.00;8.00;;;;;17.01;86.04;99424.53;6769665;19;2740779;-53
2021/08/31 19:29:22;;;;;;;;;11.80;9.60;;;;;17.01;86.55;99412.78;6784086;19;2787660;-55
2021/08/31 19:31:49;;;;;;;;;12.00;10.00;;;;;17.14;85.53;99426.97;6764555;19;2779410;-55
2021/08/31 19:34:17;;;;;;;;;10.50;10.50;;;;;17.21;84.91;99425.38;6764704;19;2787688;-53
2021/08/31 19:36:46;;;;;;;;;13.67;8.33;;;;;17.11;85.30;99413.66;6753758;19;2776245;-52
2021/08/31 19:39:15;;;;;;;;;11.40;10.20;;;;;16.97;85.87;99411.38;6813447;19;2772087;-55
2021/08/31 19:41:44;;;;;;;;;10.60;10.60;;;;;17.21;85.64;99414.50;6779765;19;2784570;-51
2021/08/31 19:44:12;;;;;;;;;10.00;10.00;;;;;17.18;85.31;99403.09;6753770;19;2777715;-52
2021/08/31 19:46:41;;;;;;;;;12.20;9.00;;;;;17.06;85.94;99408.69;6781630;19;2776210;-55
2021/08/31 19:49:10;;;;;;;;;10.33;8.00;;;;;16.99;86.66;99403.97;6752914;19;2753298;-55
2021/08/31 19:51:37;;;;;;;;;11.00;11.00;;;;;16.87;87.14;99406.78;6792716;19;2793992;-53
2021/08/31 19:54:05;;;;;;;;;11.50;9.00;;;;;17.00;86.49;99408.38;6754676;19;2761723;-55
2021/08/31 19:56:34;;;;;;;;;7.50;7.50;;;;;17.04;85.68;99412.53;6754611;19;2728303;-54
2021/08/31 19:59:02;;;;;;;;;7.00;7.00;;;;;17.05;85.90;99408.81;6759759;19;2731508;-55
2021/08/31 20:01:29;;;;;;;;;8.00;8.00;;;;;17.10;86.11;99411.97;6755805;19;2741904;-52
2021/08/31 20:03:58;;;;;;;;;8.00;8.00;;;;;17.16;85.65;99416.78;6758933;19;2733539;-54
2021/08/31 20:06:29;;;;;;;;;9.00;9.00;;;;;17.05;85.95;99414.25;6784713;19;2741936;-54
2021/08/31 20:08:59;;;;;;;;;8.00;5.71;;;;;17.29;85.43;99419.22;6756559;19;3460577;-54
2021/08/31 20:11:26;;;;;;;;;7.00;5.00;;;;;17.06;85.03;99410.50;6754148;19;2742905;-56
2021/08/31 20:13:57;;;;;;;;;8.60;7.40;;;;;17.19;84.98;99411.06;6783004;19;2740826;-55
2021/08/31 20:16:24;;;;;;;;;5.00;5.00;;;;;17.24;84.26;99402.50;6787699;19;2746007;-55
2021/08/31 20:18:51;;;;;;;;;9.00;6.00;;;;;17.52;83.10;99400.78;6751499;19;2751207;-52
2021/08/31 20:21:19;;;;;;;;;9.00;8.00;;;;;17.18;84.36;99409.38;6751956;19;2730386;-55
2021/08/31 20:23:47;;;;;;;;;7.00;6.00;;;;;17.28;84.10;99406.66;6754658;19;2741902;-53
2021/08/31 20:26:14;;;;;;;;;7.50;7.50;;;;;17.24;84.41;99414.22;6750206;19;2738711;-56
2021/08/31 20:28:42;;;;;;;;;5.00;5.00;;;;;17.16;85.00;99405.09;6752306;19;2721008;-53
2021/08/31 20:31:09;;;;;;;;;7.00;7.00;;;;;17.14;85.16;99410.69;6753923;19;2746362;-54
2021/08/31 20:33:37;;;;;;;;;7.00;7.00;;;;;17.16;84.80;99400.53;6749293;19;2740823;-53
2021/08/31 20:36:05;;;;;;;;;9.50;8.00;;;;;17.07;85.54;99412.25;6753577;19;2748185;-55
2021/08/31 20:38:36;;;;;;;;;6.00;6.00;;;;;17.05;85.66;99406.09;6794180;19;2475196;-56
2021/08/31 20:41:03;;;;;;;;;7.00;7.00;;;;;17.22;85.20;99407.22;6782957;19;2746003;-55
2021/08/31 20:43:31;;;;;;;;;5.00;5.00;;;;;17.04;85.86;99407.09;6752623;19;2737677;-54
2021/08/31 20:45:58;;;;;;;;;6.00;6.00;;;;;17.11;85.50;99403.69;6754112;19;2742882;-55
2021/08/31 20:48:26;;;;;;;;;6.00;6.00;;;;;17.08;84.75;99405.81;6750940;19;2730430;-56
2021/08/31 20:50:54;;;;;;;;;6.00;6.00;;;;;17.15;84.40;99409.66;6753545;19;2741916;-54
2021/08/31 20:53:21;;;;;;;;;7.50;6.00;;;;;17.08;85.15;99419.38;6752359;19;2733508;-51
2021/08/31 20:55:49;;;;;;;;;6.50;6.00;;;;;16.98;85.40;99405.81;6753475;19;2743928;-56
2021/08/31 20:58:16;;;;;;;;;6.00;5.00;;;;;17.15;83.85;99411.53;6750137;19;2741876;-54
2021/08/31 21:00:44;;;;;;;;;6.00;6.00;;;;;17.10;84.01;99401.94;6751849;19;2738719;-53
2021/08/31 21:03:11;;;;;;;;;6.00;6.00;;;;;17.09;84.14;99410.25;6751981;19;2746442;-53
2021/08/31 21:05:39;;;;;;;;;6.00;6.00;;;;;17.11;84.40;99408.22;6753625;19;2740799;-55
2021/08/31 21:08:07;;;;;;;;;5.50;5.50;;;;;17.10;83.98;99418.22;6752651;19;2736660;-55
2021/08/31 21:10:36;;;;;;;;;5.40;5.40;;;;;16.96;84.52;99415.09;6778854;19;2737721;-54
2021/08/31 21:13:03;;;;;;;;;6.50;6.50;;;;;17.10;83.77;99417.38;6785224;19;2735590;-55
2021/08/31 21:15:31;;;;;;;;;6.00;6.00;;;;;17.18;83.37;99414.81;6754263;19;2739820;-53
2021/08/31 21:18:02;;;;;;;;;7.00;6.86;;;;;17.11;83.56;99424.50;6795985;19;3455350;-53
2021/08/31 21:20:29;;;;;;;;;4.50;4.50;;;;;17.04;84.00;99416.09;6781460;19;2738731;-55
2021/08/31 21:22:57;;;;;;;;;5.00;5.00;;;;;17.12;83.67;99426.25;6749970;19;2735641;-55
2021/08/31 21:25:29;;;;;;;;;8.00;8.00;;;;;17.09;83.44;99427.38;6792684;19;2473097;-54
2021/08/31 21:27:56;;;;;;;;;8.50;6.00;;;;;16.93;84.06;99431.63;6783130;19;2724184;-54
2021/08/31 21:30:24;;;;;;;;;9.00;7.00;;;;;17.04;83.77;99423.38;6752023;19;2738711;-55
2021/08/31 21:32:51;;;;;;;;;7.00;7.00;;;;;17.07;83.53;99434.78;6752682;19;2738779;-55
2021/08/31 21:35:19;;;;;;;;;6.00;6.00;;;;;17.01;83.63;99429.06;6751352;19;2746015;-54
2021/08/31 21:37:50;;;;;;;;;8.00;8.00;;;;;16.97;83.79;99423.09;6793997;19;3440778;-54
2021/08/31 21:40:17;;;;;;;;;7.00;7.00;;;;;16.92;84.50;99436.22;6779727;19;2738736;-53
2021/08/31 21:42:45;;;;;;;;;8.50;8.50;;;;;17.06;83.85;99432.22;6750336;19;2746031;-52
2021/08/31 21:45:12;;;;;;;;;6.50;6.50;;;;;17.00;83.83;99432.78;6752844;19;2744038;-55
2021/08/31 21:47:40;;;;;;;;;7.00;7.00;;;;;16.92;84.09;99432.66;6752978;19;2733511;-52
2021/08/31 21:50:10;;;;;;;;;8.20;7.00;;;;;16.97;84.47;99428.50;6778547;19;2741837;-54
2021/08/31 21:52:37;;;;;;;;;9.00;9.00;;;;;16.98;83.57;99423.94;6781431;19;2748118;-54
2021/08/31 21:55:05;;;;;;;;;7.00;7.00;;;;;16.96;84.34;99425.94;6749808;19;2738703;-52
2021/08/31 21:57:33;;;;;;;;;8.50;7.00;;;;;16.88;84.27;99432.94;6753114;19;2725229;-54
2021/08/31 22:00:00;;;;;;;;;9.00;7.00;;;;;17.08;83.42;99432.94;6753160;19;2733571;-52
2021/08/31 22:02:28;;;;;;;;;8.00;8.00;;;;;17.04;83.52;99439.66;6747607;19;2743959;-53
2021/08/31 22:04:59;;;;;;;;;8.14;6.43;;;;;16.94;84.29;99436.09;6798599;19;3450177;-54
2021/08/31 22:07:27;;;;;;;;;8.00;7.50;;;;;16.93;83.97;99428.91;6789536;19;2741864;-55
2021/08/31 22:09:55;;;;;;;;;7.50;7.50;;;;;16.93;83.58;99434.34;6758432;19;2737658;-53
2021/08/31 22:12:22;;;;;;;;;7.50;7.50;;;;;16.94;84.13;99434.22;6759615;19;2731420;-54
2021/08/31 22:14:49;;;;;;;;;8.50;8.50;;;;;16.93;83.70;99434.34;6756733;19;2734595;-54
2021/08/31 22:17:17;;;;;;;;;8.00;6.00;;;;;16.99;83.34;99425.66;6759149;19;2735622;-54
2021/08/31 22:19:44;;;;;;;;;6.00;6.00;;;;;17.06;83.30;99437.63;6756314;19;2741844;-55
2021/08/31 22:22:12;;;;;;;;;7.00;7.00;;;;;16.82;84.51;99430.75;6755376;19;2731446;-50
2021/08/31 22:24:40;;;;;;;;;9.00;8.00;;;;;16.84;84.68;99438.78;6753768;19;2743044;-54
2021/08/31 22:27:07;;;;;;;;;10.00;10.00;;;;;16.88;84.14;99441.06;6756226;19;2772104;-54
2021/08/31 22:29:35;;;;;;;;;8.00;6.50;;;;;16.92;84.20;99438.06;6754749;19;2736632;-56
2021/08/31 22:32:04;;;;;;;;;9.00;7.50;;;;;16.91;84.68;99444.50;6755553;19;2744957;-54
2021/08/31 22:34:33;;;;;;;;;8.80;8.80;;;;;16.82;85.30;99436.19;6784937;19;2748094;-54
2021/08/31 22:37:00;;;;;;;;;9.00;9.00;;;;;16.61;86.13;99449.84;6754268;19;2749128;-56
2021/08/31 22:39:28;;;;;;;;;10.50;9.50;;;;;16.57;86.60;99444.81;6762532;19;2776246;-54
2021/08/31 22:41:56;;;;;;;;;10.50;9.00;;;;;16.57;87.36;99447.53;6751454;19;2763738;-53
2021/08/31 22:44:23;;;;;;;;;9.00;9.00;;;;;16.70;87.03;99442.72;6755781;19;2753373;-55
2021/08/31 22:46:51;;;;;;;;;9.50;9.50;;;;;16.63;87.01;99445.13;6757239;19;2759535;-56
2021/08/31 22:49:18;;;;;;;;;10.00;10.00;;;;;16.35;88.30;99433.22;6754793;19;2791927;-53
2021/08/31 22:51:46;;;;;;;;;9.00;9.00;;;;;16.25;90.05;99443.16;6757008;19;2753725;-53
2021/08/31 22:54:14;;;;;;;;;11.00;8.50;;;;;16.45;88.95;99438.66;6753851;19;2775168;-54
2021/08/31 22:56:41;;;;;;;;;9.00;9.00;;;;;16.15;90.56;99439.53;6751104;19;2751594;-55
2021/08/31 22:59:09;;;;;;;;;9.00;9.00;;;;;16.36;89.90;99444.91;6753930;19;2747087;-53
2021/08/31 23:01:36;;;;;;;;;8.50;8.50;;;;;16.32;89.41;99433.47;6755267;19;2739824;-55
2021/08/31 23:04:04;;;;;;;;;7.50;7.50;;;;;16.49;88.23;99433.81;6756424;19;2743907;-50
2021/08/31 23:06:31;;;;;;;;;12.50;8.00;;;;;16.35;89.18;99427.81;6751125;19;2766844;-52
2021/08/31 23:09:01;;;;;;;;;12.00;9.00;;;;;16.40;89.01;99428.25;6779506;19;2767889;-54
2021/08/31 23:11:28;;;;;;;;;9.00;8.00;;;;;16.09;90.04;99429.25;6753342;19;2730410;-56
2021/08/31 23:13:56;;;;;;;;;8.50;8.50;;;;;16.40;89.65;99436.38;6753179;19;2734036;-52
2021/08/31 23:16:23;;;;;;;;;9.50;8.50;;;;;16.39;88.88;99421.09;6755498;19;2749132;-54
2021/08/31 23:18:51;;;;;;;;;8.50;7.00;;;;;16.39;89.34;99423.81;6749553;19;2739761;-54
2021/08/31 23:21:19;;;;;;;;;9.00;9.00;;;;;16.38;88.28;99429.38;6748336;19;2764784;-55
2021/08/31 23:23:48;;;;;;;;;12.00;10.00;;;;;16.36;88.43;99426.78;6781403;19;2784579;-55
2021/08/31 23:26:17;;;;;;;;;11.00;8.60;;;;;16.52;87.62;99434.41;6779012;19;2768958;-53
2021/08/31 23:28:45;;;;;;;;;10.00;8.50;;;;;16.35;88.24;99432.34;6753428;19;2760620;-55
2021/08/31 23:31:12;;;;;;;;;9.50;9.00;;;;;16.33;88.17;99437.06;6754684;19;2756411;-55
2021/08/31 23:33:40;;;;;;;;;9.00;9.00;;;;;16.34;88.75;99436.91;6753172;19;2739753;-53
2021/08/31 23:36:09;;;;;;;;;20.00;18.67;;;;;16.32;88.49;99436.16;6748471;19;3568930;-54
2021/08/31 23:38:38;;;;;;;;;26.00;23.67;;;;;16.32;88.53;99438.03;6777738;19;2846035;-52
2021/08/31 23:41:06;;;;;;;;;16.00;14.67;;;;;16.42;88.14;99437.06;6779911;19;2797124;-55
2021/08/31 23:43:34;;;;;;;;;20.00;17.00;;;;;16.34;88.05;99447.75;6785382;19;2825205;-54
2021/08/31 23:46:02;;;;;;;;;11.67;11.67;;;;;16.33;89.35;99442.47;6746190;19;2813770;-53
2021/08/31 23:48:30;;;;;;;;;17.67;16.00;;;;;16.43;87.91;99441.50;6779334;19;3550141;-54
2021/08/31 23:50:58;;;;;;;;;14.00;11.00;;;;;16.27;88.64;99441.16;6788165;19;2789783;-56
2021/08/31 23:53:25;;;;;;;;;13.00;13.00;;;;;16.21;89.03;99439.00;6753511;19;2802250;-55
2021/08/31 23:55:53;;;;;;;;;13.67;13.67;;;;;16.32;88.54;99433.47;6748305;19;2788761;-53
2021/08/31 23:58:22;;;;;;;;;14.00;10.00;;;;;16.26;88.75;99439.44;6780462;19;3517850;-54
